sensor_id;sensor_type;location;lat;lon;timestamp;P1;durP1;ratioP1;P2;durP2;ratioP2
70169;SDS011;57543;45.442;9.212;2023-07-28T00:00:11;8.07;;;3.20;;
70169;SDS011;57543;45.442;9.212;2023-07-28T00:03:21;4.97;;;2.80;;
70169;SDS011;57543;45.442;9.212;2023-07-28T00:06:25;6.70;;;2.95;;
70169;SDS011;57543;45.442;9.212;2023-07-28T00:09:29;7.70;;;3.40;;
70169;SDS011;57543;45.442;9.212;2023-07-28T00:12:35;6.70;;;3.28;;
70169;SDS011;57543;45.442;9.212;2023-07-28T00:15:39;5.70;;;2.95;;
70169;SDS011;57543;45.442;9.212;2023-07-28T00:18:45;5.80;;;2.80;;
70169;SDS011;57543;45.442;9.212;2023-07-28T00:21:48;4.97;;;2.58;;
70169;SDS011;57543;45.442;9.212;2023-07-28T00:24:55;5.77;;;2.80;;
70169;SDS011;57543;45.442;9.212;2023-07-28T00:28:01;6.22;;;2.83;;
70169;SDS011;57543;45.442;9.212;2023-07-28T00:31:04;5.53;;;2.88;;
70169;SDS011;57543;45.442;9.212;2023-07-28T00:34:11;5.43;;;2.90;;
70169;SDS011;57543;45.442;9.212;2023-07-28T00:37:14;5.07;;;2.53;;
70169;SDS011;57543;45.442;9.212;2023-07-28T00:40:18;6.47;;;2.67;;
70169;SDS011;57543;45.442;9.212;2023-07-28T00:43:22;6.13;;;3.08;;
70169;SDS011;57543;45.442;9.212;2023-07-28T00:46:34;5.63;;;3.17;;
70169;SDS011;57543;45.442;9.212;2023-07-28T00:49:39;6.82;;;3.20;;
70169;SDS011;57543;45.442;9.212;2023-07-28T00:52:43;7.60;;;3.72;;
70169;SDS011;57543;45.442;9.212;2023-07-28T00:55:47;6.37;;;2.97;;
70169;SDS011;57543;45.442;9.212;2023-07-28T00:58:51;6.72;;;3.10;;
70169;SDS011;57543;45.442;9.212;2023-07-28T01:01:55;6.70;;;3.60;;
70169;SDS011;57543;45.442;9.212;2023-07-28T01:04:59;7.07;;;3.10;;
70169;SDS011;57543;45.442;9.212;2023-07-28T01:08:06;10.65;;;3.70;;
70169;SDS011;57543;45.442;9.212;2023-07-28T01:11:31;7.17;;;3.40;;
70169;SDS011;57543;45.442;9.212;2023-07-28T01:14:35;7.72;;;3.38;;
70169;SDS011;57543;45.442;9.212;2023-07-28T01:17:39;6.90;;;3.28;;
70169;SDS011;57543;45.442;9.212;2023-07-28T01:20:42;7.38;;;3.33;;
70169;SDS011;57543;45.442;9.212;2023-07-28T01:27:15;6.27;;;3.33;;
70169;SDS011;57543;45.442;9.212;2023-07-28T01:30:20;6.38;;;3.40;;
70169;SDS011;57543;45.442;9.212;2023-07-28T01:33:24;7.05;;;3.25;;
70169;SDS011;57543;45.442;9.212;2023-07-28T01:36:28;6.85;;;3.40;;
70169;SDS011;57543;45.442;9.212;2023-07-28T01:39:31;6.03;;;3.00;;
70169;SDS011;57543;45.442;9.212;2023-07-28T01:42:39;6.17;;;3.00;;
70169;SDS011;57543;45.442;9.212;2023-07-28T01:45:42;9.75;;;3.38;;
70169;SDS011;57543;45.442;9.212;2023-07-28T01:48:47;7.13;;;3.38;;
70169;SDS011;57543;45.442;9.212;2023-07-28T01:51:50;7.13;;;3.38;;
70169;SDS011;57543;45.442;9.212;2023-07-28T01:54:54;7.28;;;3.53;;
70169;SDS011;57543;45.442;9.212;2023-07-28T01:57:59;7.77;;;3.10;;
70169;SDS011;57543;45.442;9.212;2023-07-28T02:01:05;7.38;;;3.80;;
70169;SDS011;57543;45.442;9.212;2023-07-28T02:04:08;6.70;;;3.70;;
70169;SDS011;57543;45.442;9.212;2023-07-28T02:07:12;7.22;;;3.55;;
70169;SDS011;57543;45.442;9.212;2023-07-28T02:10:15;6.78;;;3.83;;
70169;SDS011;57543;45.442;9.212;2023-07-28T02:13:19;6.03;;;3.37;;
70169;SDS011;57543;45.442;9.212;2023-07-28T02:16:23;6.55;;;3.33;;
70169;SDS011;57543;45.442;9.212;2023-07-28T02:19:28;6.78;;;3.83;;
70169;SDS011;57543;45.442;9.212;2023-07-28T02:22:35;6.95;;;3.58;;
70169;SDS011;57543;45.442;9.212;2023-07-28T02:25:40;6.10;;;3.40;;
70169;SDS011;57543;45.442;9.212;2023-07-28T02:28:44;8.03;;;3.70;;
70169;SDS011;57543;45.442;9.212;2023-07-28T02:31:48;7.55;;;4.22;;
70169;SDS011;57543;45.442;9.212;2023-07-28T02:34:53;6.35;;;3.55;;
70169;SDS011;57543;45.442;9.212;2023-07-28T02:37:57;6.60;;;3.75;;
70169;SDS011;57543;45.442;9.212;2023-07-28T02:41:01;7.18;;;4.18;;
70169;SDS011;57543;45.442;9.212;2023-07-28T02:44:09;6.43;;;3.37;;
70169;SDS011;57543;45.442;9.212;2023-07-28T02:47:13;7.13;;;3.50;;
70169;SDS011;57543;45.442;9.212;2023-07-28T02:50:17;6.40;;;3.38;;
70169;SDS011;57543;45.442;9.212;2023-07-28T02:53:21;7.03;;;3.47;;
70169;SDS011;57543;45.442;9.212;2023-07-28T02:56:28;7.70;;;3.78;;
70169;SDS011;57543;45.442;9.212;2023-07-28T02:59:31;7.73;;;3.70;;
70169;SDS011;57543;45.442;9.212;2023-07-28T03:02:35;6.40;;;3.58;;
70169;SDS011;57543;45.442;9.212;2023-07-28T03:05:39;10.15;;;4.03;;
70169;SDS011;57543;45.442;9.212;2023-07-28T03:09:09;7.95;;;3.78;;
70169;SDS011;57543;45.442;9.212;2023-07-28T03:12:21;6.22;;;3.92;;
70169;SDS011;57543;45.442;9.212;2023-07-28T03:15:25;6.77;;;3.60;;
70169;SDS011;57543;45.442;9.212;2023-07-28T03:18:29;8.45;;;3.50;;
70169;SDS011;57543;45.442;9.212;2023-07-28T03:21:33;6.55;;;3.90;;
70169;SDS011;57543;45.442;9.212;2023-07-28T03:24:37;6.75;;;3.75;;
70169;SDS011;57543;45.442;9.212;2023-07-28T03:27:40;6.32;;;3.88;;
70169;SDS011;57543;45.442;9.212;2023-07-28T03:30:47;6.60;;;3.30;;
70169;SDS011;57543;45.442;9.212;2023-07-28T03:33:53;7.68;;;3.55;;
70169;SDS011;57543;45.442;9.212;2023-07-28T03:37:00;7.72;;;3.50;;
70169;SDS011;57543;45.442;9.212;2023-07-28T03:40:04;7.05;;;3.42;;
70169;SDS011;57543;45.442;9.212;2023-07-28T03:43:17;5.70;;;2.88;;
70169;SDS011;57543;45.442;9.212;2023-07-28T03:46:20;7.00;;;3.60;;
70169;SDS011;57543;45.442;9.212;2023-07-28T03:49:24;5.60;;;3.50;;
70169;SDS011;57543;45.442;9.212;2023-07-28T03:52:28;8.55;;;3.38;;
70169;SDS011;57543;45.442;9.212;2023-07-28T03:55:32;11.02;;;4.15;;
70169;SDS011;57543;45.442;9.212;2023-07-28T03:58:36;6.90;;;3.45;;
70169;SDS011;57543;45.442;9.212;2023-07-28T04:01:42;9.63;;;3.37;;
70169;SDS011;57543;45.442;9.212;2023-07-28T04:04:45;7.55;;;3.10;;
70169;SDS011;57543;45.442;9.212;2023-07-28T04:07:49;7.10;;;3.38;;
70169;SDS011;57543;45.442;9.212;2023-07-28T04:10:53;6.93;;;3.33;;
70169;SDS011;57543;45.442;9.212;2023-07-28T04:13:57;6.55;;;3.72;;
70169;SDS011;57543;45.442;9.212;2023-07-28T04:17:03;6.87;;;3.33;;
70169;SDS011;57543;45.442;9.212;2023-07-28T04:20:07;6.32;;;2.80;;
70169;SDS011;57543;45.442;9.212;2023-07-28T04:23:13;8.00;;;3.35;;
70169;SDS011;57543;45.442;9.212;2023-07-28T04:26:18;6.70;;;3.28;;
70169;SDS011;57543;45.442;9.212;2023-07-28T04:29:24;7.38;;;3.60;;
70169;SDS011;57543;45.442;9.212;2023-07-28T04:32:27;7.53;;;3.30;;
70169;SDS011;57543;45.442;9.212;2023-07-28T04:35:33;7.90;;;3.25;;
70169;SDS011;57543;45.442;9.212;2023-07-28T04:38:48;6.75;;;3.35;;
70169;SDS011;57543;45.442;9.212;2023-07-28T04:41:54;8.60;;;3.95;;
70169;SDS011;57543;45.442;9.212;2023-07-28T04:45:00;8.18;;;3.78;;
70169;SDS011;57543;45.442;9.212;2023-07-28T04:48:04;9.10;;;3.47;;
70169;SDS011;57543;45.442;9.212;2023-07-28T04:51:08;10.65;;;4.00;;
70169;SDS011;57543;45.442;9.212;2023-07-28T04:54:30;6.32;;;3.47;;
70169;SDS011;57543;45.442;9.212;2023-07-28T04:57:34;7.20;;;3.28;;
70169;SDS011;57543;45.442;9.212;2023-07-28T05:00:38;6.13;;;3.45;;
70169;SDS011;57543;45.442;9.212;2023-07-28T05:03:42;6.53;;;3.40;;
70169;SDS011;57543;45.442;9.212;2023-07-28T05:06:56;6.72;;;3.38;;
70169;SDS011;57543;45.442;9.212;2023-07-28T05:10:00;7.47;;;3.20;;
70169;SDS011;57543;45.442;9.212;2023-07-28T05:13:05;6.15;;;2.80;;
70169;SDS011;57543;45.442;9.212;2023-07-28T05:16:09;5.03;;;2.63;;
70169;SDS011;57543;45.442;9.212;2023-07-28T05:19:31;5.77;;;2.90;;
70169;SDS011;57543;45.442;9.212;2023-07-28T05:22:35;7.05;;;3.00;;
70169;SDS011;57543;45.442;9.212;2023-07-28T05:25:39;5.53;;;2.92;;
70169;SDS011;57543;45.442;9.212;2023-07-28T05:28:47;5.70;;;2.70;;
70169;SDS011;57543;45.442;9.212;2023-07-28T05:31:50;6.80;;;3.60;;
70169;SDS011;57543;45.442;9.212;2023-07-28T05:35:03;8.23;;;3.20;;
70169;SDS011;57543;45.442;9.212;2023-07-28T05:38:07;6.70;;;3.22;;
70169;SDS011;57543;45.442;9.212;2023-07-28T05:41:10;6.10;;;3.30;;
70169;SDS011;57543;45.442;9.212;2023-07-28T05:44:14;6.22;;;3.00;;
70169;SDS011;57543;45.442;9.212;2023-07-28T05:47:21;7.97;;;3.38;;
70169;SDS011;57543;45.442;9.212;2023-07-28T05:50:27;5.93;;;2.70;;
70169;SDS011;57543;45.442;9.212;2023-07-28T05:53:34;6.95;;;3.40;;
70169;SDS011;57543;45.442;9.212;2023-07-28T05:56:42;6.95;;;3.25;;
70169;SDS011;57543;45.442;9.212;2023-07-28T05:59:46;7.60;;;3.20;;
70169;SDS011;57543;45.442;9.212;2023-07-28T06:02:53;9.10;;;3.58;;
70169;SDS011;57543;45.442;9.212;2023-07-28T06:06:22;6.30;;;2.93;;
70169;SDS011;57543;45.442;9.212;2023-07-28T06:09:26;8.50;;;4.03;;
70169;SDS011;57543;45.442;9.212;2023-07-28T06:12:32;5.63;;;3.15;;
70169;SDS011;57543;45.442;9.212;2023-07-28T06:15:38;6.47;;;3.00;;
70169;SDS011;57543;45.442;9.212;2023-07-28T06:18:43;5.90;;;2.80;;
70169;SDS011;57543;45.442;9.212;2023-07-28T06:21:51;7.70;;;3.20;;
70169;SDS011;57543;45.442;9.212;2023-07-28T06:24:55;7.10;;;2.90;;
70169;SDS011;57543;45.442;9.212;2023-07-28T06:27:58;6.38;;;3.05;;
70169;SDS011;57543;45.442;9.212;2023-07-28T06:31:02;7.10;;;2.97;;
70169;SDS011;57543;45.442;9.212;2023-07-28T06:34:06;9.90;;;4.25;;
70169;SDS011;57543;45.442;9.212;2023-07-28T06:37:10;7.50;;;4.47;;
70169;SDS011;57543;45.442;9.212;2023-07-28T06:40:14;7.32;;;3.50;;
70169;SDS011;57543;45.442;9.212;2023-07-28T06:43:21;8.57;;;4.32;;
70169;SDS011;57543;45.442;9.212;2023-07-28T06:46:28;9.80;;;3.83;;
70169;SDS011;57543;45.442;9.212;2023-07-28T06:49:32;6.55;;;3.35;;
70169;SDS011;57543;45.442;9.212;2023-07-28T06:52:38;7.20;;;3.30;;
70169;SDS011;57543;45.442;9.212;2023-07-28T06:55:43;7.22;;;3.30;;
70169;SDS011;57543;45.442;9.212;2023-07-28T06:58:46;9.50;;;3.47;;
70169;SDS011;57543;45.442;9.212;2023-07-28T07:01:50;7.28;;;3.30;;
70169;SDS011;57543;45.442;9.212;2023-07-28T07:04:55;6.47;;;3.40;;
70169;SDS011;57543;45.442;9.212;2023-07-28T07:07:59;9.03;;;3.90;;
70169;SDS011;57543;45.442;9.212;2023-07-28T07:11:06;7.45;;;3.15;;
70169;SDS011;57543;45.442;9.212;2023-07-28T07:14:09;7.18;;;2.65;;
70169;SDS011;57543;45.442;9.212;2023-07-28T07:17:12;8.85;;;2.60;;
70169;SDS011;57543;45.442;9.212;2023-07-28T07:20:19;8.18;;;3.00;;
70169;SDS011;57543;45.442;9.212;2023-07-28T07:23:22;5.60;;;2.80;;
70169;SDS011;57543;45.442;9.212;2023-07-28T07:26:26;6.45;;;2.75;;
70169;SDS011;57543;45.442;9.212;2023-07-28T07:29:29;7.47;;;3.08;;
70169;SDS011;57543;45.442;9.212;2023-07-28T07:32:33;7.55;;;2.90;;
70169;SDS011;57543;45.442;9.212;2023-07-28T07:35:37;9.30;;;3.92;;
70169;SDS011;57543;45.442;9.212;2023-07-28T07:38:44;7.50;;;3.40;;
70169;SDS011;57543;45.442;9.212;2023-07-28T07:41:52;8.50;;;4.10;;
70169;SDS011;57543;45.442;9.212;2023-07-28T07:44:55;8.48;;;3.75;;
70169;SDS011;57543;45.442;9.212;2023-07-28T07:47:59;8.20;;;3.47;;
70169;SDS011;57543;45.442;9.212;2023-07-28T07:51:02;10.98;;;4.00;;
70169;SDS011;57543;45.442;9.212;2023-07-28T07:54:09;10.07;;;3.73;;
70169;SDS011;57543;45.442;9.212;2023-07-28T07:57:15;7.28;;;3.40;;
70169;SDS011;57543;45.442;9.212;2023-07-28T08:00:24;9.32;;;3.03;;
70169;SDS011;57543;45.442;9.212;2023-07-28T08:03:32;6.47;;;2.50;;
70169;SDS011;57543;45.442;9.212;2023-07-28T08:06:36;5.60;;;2.80;;
70169;SDS011;57543;45.442;9.212;2023-07-28T08:09:40;10.30;;;3.10;;
70169;SDS011;57543;45.442;9.212;2023-07-28T08:12:44;8.32;;;3.38;;
70169;SDS011;57543;45.442;9.212;2023-07-28T08:15:50;8.15;;;3.40;;
70169;SDS011;57543;45.442;9.212;2023-07-28T08:18:53;7.00;;;3.50;;
70169;SDS011;57543;45.442;9.212;2023-07-28T08:21:57;5.95;;;2.88;;
70169;SDS011;57543;45.442;9.212;2023-07-28T08:25:01;7.67;;;3.20;;
70169;SDS011;57543;45.442;9.212;2023-07-28T08:28:04;7.82;;;3.42;;
70169;SDS011;57543;45.442;9.212;2023-07-28T08:31:11;7.68;;;3.10;;
70169;SDS011;57543;45.442;9.212;2023-07-28T08:34:15;6.53;;;2.80;;
70169;SDS011;57543;45.442;9.212;2023-07-28T08:37:20;9.07;;;3.13;;
70169;SDS011;57543;45.442;9.212;2023-07-28T08:40:26;6.77;;;3.13;;
70169;SDS011;57543;45.442;9.212;2023-07-28T08:43:33;7.32;;;2.67;;
70169;SDS011;57543;45.442;9.212;2023-07-28T08:46:36;12.43;;;3.13;;
70169;SDS011;57543;45.442;9.212;2023-07-28T08:49:40;8.00;;;3.25;;
70169;SDS011;57543;45.442;9.212;2023-07-28T08:52:48;7.22;;;3.00;;
70169;SDS011;57543;45.442;9.212;2023-07-28T08:55:53;10.47;;;3.60;;
70169;SDS011;57543;45.442;9.212;2023-07-28T08:58:58;6.40;;;2.80;;
70169;SDS011;57543;45.442;9.212;2023-07-28T09:02:06;5.93;;;2.90;;
70169;SDS011;57543;45.442;9.212;2023-07-28T09:05:17;9.98;;;3.20;;
70169;SDS011;57543;45.442;9.212;2023-07-28T09:08:22;10.57;;;3.13;;
70169;SDS011;57543;45.442;9.212;2023-07-28T09:11:27;5.73;;;2.63;;
70169;SDS011;57543;45.442;9.212;2023-07-28T09:14:32;6.85;;;2.50;;
70169;SDS011;57543;45.442;9.212;2023-07-28T09:17:43;6.28;;;2.60;;
70169;SDS011;57543;45.442;9.212;2023-07-28T09:20:48;7.32;;;3.00;;
70169;SDS011;57543;45.442;9.212;2023-07-28T09:23:51;7.85;;;3.17;;
70169;SDS011;57543;45.442;9.212;2023-07-28T09:27:00;7.20;;;3.10;;
70169;SDS011;57543;45.442;9.212;2023-07-28T09:30:06;8.25;;;3.15;;
70169;SDS011;57543;45.442;9.212;2023-07-28T09:33:11;7.20;;;3.28;;
70169;SDS011;57543;45.442;9.212;2023-07-28T09:36:14;9.65;;;3.08;;
70169;SDS011;57543;45.442;9.212;2023-07-28T09:39:26;6.05;;;2.42;;
70169;SDS011;57543;45.442;9.212;2023-07-28T09:42:31;7.63;;;2.83;;
70169;SDS011;57543;45.442;9.212;2023-07-28T09:45:35;7.03;;;2.75;;
70169;SDS011;57543;45.442;9.212;2023-07-28T09:48:39;6.38;;;2.75;;
70169;SDS011;57543;45.442;9.212;2023-07-28T09:51:48;7.82;;;2.92;;
70169;SDS011;57543;45.442;9.212;2023-07-28T09:54:56;7.63;;;3.00;;
70169;SDS011;57543;45.442;9.212;2023-07-28T09:58:03;5.77;;;2.93;;
70169;SDS011;57543;45.442;9.212;2023-07-28T10:01:09;7.35;;;2.70;;
70169;SDS011;57543;45.442;9.212;2023-07-28T10:04:12;10.93;;;3.10;;
70169;SDS011;57543;45.442;9.212;2023-07-28T10:07:18;10.30;;;2.80;;
70169;SDS011;57543;45.442;9.212;2023-07-28T10:10:23;8.43;;;2.63;;
70169;SDS011;57543;45.442;9.212;2023-07-28T10:13:26;5.33;;;2.70;;
70169;SDS011;57543;45.442;9.212;2023-07-28T10:16:38;7.70;;;2.70;;
70169;SDS011;57543;45.442;9.212;2023-07-28T10:19:44;6.95;;;2.50;;
70169;SDS011;57543;45.442;9.212;2023-07-28T10:22:48;7.50;;;2.80;;
70169;SDS011;57543;45.442;9.212;2023-07-28T10:25:57;8.35;;;2.60;;
70169;SDS011;57543;45.442;9.212;2023-07-28T10:29:15;8.80;;;2.80;;
70169;SDS011;57543;45.442;9.212;2023-07-28T10:32:26;8.40;;;2.90;;
70169;SDS011;57543;45.442;9.212;2023-07-28T10:35:46;8.65;;;2.95;;
70169;SDS011;57543;45.442;9.212;2023-07-28T10:39:01;6.28;;;2.65;;
70169;SDS011;57543;45.442;9.212;2023-07-28T10:42:11;8.70;;;2.72;;
70169;SDS011;57543;45.442;9.212;2023-07-28T10:45:14;5.53;;;2.60;;
70169;SDS011;57543;45.442;9.212;2023-07-28T10:48:18;7.80;;;2.45;;
70169;SDS011;57543;45.442;9.212;2023-07-28T10:51:22;7.30;;;2.20;;
70169;SDS011;57543;45.442;9.212;2023-07-28T10:54:28;10.40;;;2.78;;
70169;SDS011;57543;45.442;9.212;2023-07-28T10:57:35;6.30;;;2.72;;
70169;SDS011;57543;45.442;9.212;2023-07-28T11:00:39;7.67;;;2.50;;
70169;SDS011;57543;45.442;9.212;2023-07-28T11:03:43;6.50;;;2.70;;
70169;SDS011;57543;45.442;9.212;2023-07-28T11:06:49;9.90;;;2.92;;
70169;SDS011;57543;45.442;9.212;2023-07-28T11:09:54;6.47;;;2.55;;
70169;SDS011;57543;45.442;9.212;2023-07-28T11:12:58;6.32;;;2.60;;
70169;SDS011;57543;45.442;9.212;2023-07-28T11:16:05;4.83;;;2.60;;
70169;SDS011;57543;45.442;9.212;2023-07-28T11:19:12;6.55;;;3.13;;
70169;SDS011;57543;45.442;9.212;2023-07-28T11:22:28;6.57;;;2.53;;
70169;SDS011;57543;45.442;9.212;2023-07-28T11:25:32;5.43;;;2.58;;
70169;SDS011;57543;45.442;9.212;2023-07-28T11:28:36;6.15;;;2.40;;
70169;SDS011;57543;45.442;9.212;2023-07-28T11:31:41;7.40;;;2.67;;
70169;SDS011;57543;45.442;9.212;2023-07-28T11:34:45;4.20;;;2.30;;
70169;SDS011;57543;45.442;9.212;2023-07-28T11:37:50;7.43;;;2.70;;
70169;SDS011;57543;45.442;9.212;2023-07-28T11:40:55;7.67;;;2.40;;
70169;SDS011;57543;45.442;9.212;2023-07-28T11:44:00;10.00;;;2.83;;
70169;SDS011;57543;45.442;9.212;2023-07-28T11:47:05;6.72;;;2.50;;
70169;SDS011;57543;45.442;9.212;2023-07-28T11:50:09;5.70;;;2.40;;
70169;SDS011;57543;45.442;9.212;2023-07-28T11:53:13;7.35;;;2.60;;
70169;SDS011;57543;45.442;9.212;2023-07-28T11:56:18;7.57;;;2.60;;
70169;SDS011;57543;45.442;9.212;2023-07-28T11:59:22;7.15;;;2.63;;
70169;SDS011;57543;45.442;9.212;2023-07-28T12:02:26;6.00;;;2.35;;
70169;SDS011;57543;45.442;9.212;2023-07-28T12:05:33;6.93;;;2.65;;
70169;SDS011;57543;45.442;9.212;2023-07-28T12:08:36;6.57;;;2.90;;
70169;SDS011;57543;45.442;9.212;2023-07-28T12:11:43;6.80;;;2.90;;
70169;SDS011;57543;45.442;9.212;2023-07-28T12:14:49;6.25;;;2.75;;
70169;SDS011;57543;45.442;9.212;2023-07-28T12:18:05;8.88;;;2.80;;
70169;SDS011;57543;45.442;9.212;2023-07-28T12:21:13;7.18;;;2.72;;
70169;SDS011;57543;45.442;9.212;2023-07-28T12:24:17;6.90;;;2.55;;
70169;SDS011;57543;45.442;9.212;2023-07-28T12:27:21;8.40;;;2.90;;
70169;SDS011;57543;45.442;9.212;2023-07-28T12:30:28;7.55;;;2.60;;
70169;SDS011;57543;45.442;9.212;2023-07-28T12:33:32;6.82;;;2.63;;
70169;SDS011;57543;45.442;9.212;2023-07-28T12:36:36;7.55;;;2.78;;
70169;SDS011;57543;45.442;9.212;2023-07-28T12:39:42;7.28;;;2.40;;
70169;SDS011;57543;45.442;9.212;2023-07-28T12:42:47;7.53;;;2.50;;
70169;SDS011;57543;45.442;9.212;2023-07-28T12:45:51;5.07;;;2.47;;
70169;SDS011;57543;45.442;9.212;2023-07-28T12:48:56;6.07;;;2.85;;
70169;SDS011;57543;45.442;9.212;2023-07-28T12:52:01;9.85;;;2.85;;
70169;SDS011;57543;45.442;9.212;2023-07-28T12:55:07;7.20;;;2.60;;
70169;SDS011;57543;45.442;9.212;2023-07-28T12:58:13;5.87;;;2.73;;
70169;SDS011;57543;45.442;9.212;2023-07-28T13:01:17;6.93;;;2.50;;
70169;SDS011;57543;45.442;9.212;2023-07-28T13:04:21;6.13;;;2.33;;
70169;SDS011;57543;45.442;9.212;2023-07-28T13:07:25;5.97;;;2.40;;
70169;SDS011;57543;45.442;9.212;2023-07-28T13:10:29;6.10;;;2.63;;
70169;SDS011;57543;45.442;9.212;2023-07-28T13:13:33;4.90;;;2.40;;
70169;SDS011;57543;45.442;9.212;2023-07-28T13:16:37;5.47;;;2.70;;
70169;SDS011;57543;45.442;9.212;2023-07-28T13:19:41;6.30;;;2.50;;
70169;SDS011;57543;45.442;9.212;2023-07-28T13:22:47;4.35;;;2.47;;
70169;SDS011;57543;45.442;9.212;2023-07-28T13:25:51;6.90;;;2.50;;
70169;SDS011;57543;45.442;9.212;2023-07-28T13:28:55;7.90;;;2.50;;
70169;SDS011;57543;45.442;9.212;2023-07-28T13:32:01;5.97;;;2.58;;
70169;SDS011;57543;45.442;9.212;2023-07-28T13:35:05;5.65;;;2.78;;
70169;SDS011;57543;45.442;9.212;2023-07-28T13:38:09;5.55;;;2.47;;
70169;SDS011;57543;45.442;9.212;2023-07-28T13:41:13;5.60;;;2.75;;
70169;SDS011;57543;45.442;9.212;2023-07-28T13:44:17;7.10;;;2.63;;
70169;SDS011;57543;45.442;9.212;2023-07-28T13:47:23;7.18;;;2.70;;
70169;SDS011;57543;45.442;9.212;2023-07-28T13:50:27;6.68;;;2.90;;
70169;SDS011;57543;45.442;9.212;2023-07-28T13:53:31;5.72;;;2.60;;
70169;SDS011;57543;45.442;9.212;2023-07-28T13:56:35;6.40;;;2.90;;
70169;SDS011;57543;45.442;9.212;2023-07-28T13:59:39;5.40;;;2.80;;
70169;SDS011;57543;45.442;9.212;2023-07-28T14:02:42;7.50;;;4.20;;
70169;SDS011;57543;45.442;9.212;2023-07-28T14:05:48;9.82;;;3.45;;
70169;SDS011;57543;45.442;9.212;2023-07-28T14:08:52;6.18;;;2.95;;
70169;SDS011;57543;45.442;9.212;2023-07-28T14:11:58;7.22;;;3.10;;
70169;SDS011;57543;45.442;9.212;2023-07-28T14:15:03;6.10;;;2.60;;
70169;SDS011;57543;45.442;9.212;2023-07-28T14:18:07;6.45;;;2.90;;
70169;SDS011;57543;45.442;9.212;2023-07-28T14:21:11;7.75;;;3.10;;
70169;SDS011;57543;45.442;9.212;2023-07-28T14:24:14;5.60;;;2.63;;
70169;SDS011;57543;45.442;9.212;2023-07-28T14:27:18;6.35;;;3.42;;
70169;SDS011;57543;45.442;9.212;2023-07-28T14:30:22;6.67;;;2.93;;
70169;SDS011;57543;45.442;9.212;2023-07-28T14:33:26;8.38;;;3.10;;
70169;SDS011;57543;45.442;9.212;2023-07-28T14:36:29;5.82;;;2.88;;
70169;SDS011;57543;45.442;9.212;2023-07-28T14:39:33;6.25;;;3.30;;
70169;SDS011;57543;45.442;9.212;2023-07-28T14:42:37;6.97;;;3.50;;
70169;SDS011;57543;45.442;9.212;2023-07-28T14:45:42;5.80;;;2.90;;
70169;SDS011;57543;45.442;9.212;2023-07-28T14:48:46;5.50;;;2.58;;
70169;SDS011;57543;45.442;9.212;2023-07-28T14:51:49;6.10;;;2.88;;
70169;SDS011;57543;45.442;9.212;2023-07-28T14:54:53;5.40;;;3.00;;
70169;SDS011;57543;45.442;9.212;2023-07-28T14:57:59;7.50;;;3.35;;
70169;SDS011;57543;45.442;9.212;2023-07-28T15:01:03;8.07;;;3.20;;
70169;SDS011;57543;45.442;9.212;2023-07-28T15:04:10;6.25;;;3.00;;
70169;SDS011;57543;45.442;9.212;2023-07-28T15:07:14;7.05;;;3.30;;
70169;SDS011;57543;45.442;9.212;2023-07-28T15:10:18;8.35;;;3.03;;
70169;SDS011;57543;45.442;9.212;2023-07-28T15:13:22;8.23;;;3.10;;
70169;SDS011;57543;45.442;9.212;2023-07-28T15:16:25;6.07;;;3.37;;
70169;SDS011;57543;45.442;9.212;2023-07-28T15:19:29;5.95;;;3.22;;
70169;SDS011;57543;45.442;9.212;2023-07-28T15:22:33;7.00;;;3.42;;
70169;SDS011;57543;45.442;9.212;2023-07-28T15:25:36;5.82;;;2.60;;
70169;SDS011;57543;45.442;9.212;2023-07-28T15:28:45;6.22;;;3.00;;
70169;SDS011;57543;45.442;9.212;2023-07-28T15:31:49;7.93;;;3.17;;
70169;SDS011;57543;45.442;9.212;2023-07-28T15:34:53;7.13;;;3.25;;
70169;SDS011;57543;45.442;9.212;2023-07-28T15:37:57;7.80;;;3.15;;
70169;SDS011;57543;45.442;9.212;2023-07-28T15:41:03;5.90;;;2.80;;
70169;SDS011;57543;45.442;9.212;2023-07-28T15:44:07;6.57;;;3.03;;
70169;SDS011;57543;45.442;9.212;2023-07-28T15:47:11;7.17;;;3.10;;
70169;SDS011;57543;45.442;9.212;2023-07-28T15:50:15;7.20;;;3.30;;
70169;SDS011;57543;45.442;9.212;2023-07-28T15:53:21;6.60;;;3.30;;
70169;SDS011;57543;45.442;9.212;2023-07-28T15:56:25;7.95;;;3.40;;
70169;SDS011;57543;45.442;9.212;2023-07-28T15:59:29;6.40;;;3.25;;
70169;SDS011;57543;45.442;9.212;2023-07-28T16:02:33;6.47;;;3.17;;
70169;SDS011;57543;45.442;9.212;2023-07-28T16:05:37;6.65;;;3.35;;
70169;SDS011;57543;45.442;9.212;2023-07-28T16:08:41;5.85;;;3.10;;
70169;SDS011;57543;45.442;9.212;2023-07-28T16:11:48;8.32;;;3.28;;
70169;SDS011;57543;45.442;9.212;2023-07-28T16:14:51;6.65;;;3.55;;
70169;SDS011;57543;45.442;9.212;2023-07-28T16:17:55;7.33;;;3.23;;
70169;SDS011;57543;45.442;9.212;2023-07-28T16:20:59;7.20;;;3.30;;
70169;SDS011;57543;45.442;9.212;2023-07-28T16:24:03;9.50;;;3.45;;
70169;SDS011;57543;45.442;9.212;2023-07-28T16:27:07;8.50;;;3.40;;
70169;SDS011;57543;45.442;9.212;2023-07-28T16:30:11;6.63;;;3.33;;
70169;SDS011;57543;45.442;9.212;2023-07-28T16:33:14;7.90;;;3.67;;
70169;SDS011;57543;45.442;9.212;2023-07-28T16:36:18;8.40;;;4.00;;
70169;SDS011;57543;45.442;9.212;2023-07-28T16:39:22;9.65;;;3.40;;
70169;SDS011;57543;45.442;9.212;2023-07-28T16:42:25;8.20;;;3.28;;
70169;SDS011;57543;45.442;9.212;2023-07-28T16:45:29;6.82;;;3.45;;
70169;SDS011;57543;45.442;9.212;2023-07-28T16:48:32;8.93;;;3.40;;
70169;SDS011;57543;45.442;9.212;2023-07-28T16:51:36;7.88;;;3.45;;
70169;SDS011;57543;45.442;9.212;2023-07-28T16:54:40;7.40;;;3.53;;
70169;SDS011;57543;45.442;9.212;2023-07-28T16:57:44;9.52;;;3.85;;
70169;SDS011;57543;45.442;9.212;2023-07-28T17:00:47;5.68;;;3.50;;
70169;SDS011;57543;45.442;9.212;2023-07-28T17:03:51;7.73;;;3.83;;
70169;SDS011;57543;45.442;9.212;2023-07-28T17:06:54;7.82;;;3.30;;
70169;SDS011;57543;45.442;9.212;2023-07-28T17:10:00;5.93;;;3.50;;
70169;SDS011;57543;45.442;9.212;2023-07-28T17:13:04;6.13;;;3.53;;
70169;SDS011;57543;45.442;9.212;2023-07-28T17:16:08;7.32;;;3.80;;
70169;SDS011;57543;45.442;9.212;2023-07-28T17:19:12;6.30;;;3.40;;
70169;SDS011;57543;45.442;9.212;2023-07-28T17:22:15;10.52;;;3.78;;
70169;SDS011;57543;45.442;9.212;2023-07-28T17:25:20;10.07;;;3.70;;
70169;SDS011;57543;45.442;9.212;2023-07-28T17:28:24;6.72;;;3.25;;
70169;SDS011;57543;45.442;9.212;2023-07-28T17:31:28;6.88;;;3.47;;
70169;SDS011;57543;45.442;9.212;2023-07-28T17:34:31;6.97;;;3.43;;
70169;SDS011;57543;45.442;9.212;2023-07-28T17:37:35;9.73;;;3.60;;
70169;SDS011;57543;45.442;9.212;2023-07-28T17:40:39;6.70;;;3.42;;
70169;SDS011;57543;45.442;9.212;2023-07-28T17:43:45;7.20;;;3.63;;
70169;SDS011;57543;45.442;9.212;2023-07-28T17:46:48;7.45;;;3.50;;
70169;SDS011;57543;45.442;9.212;2023-07-28T17:49:52;7.57;;;3.40;;
70169;SDS011;57543;45.442;9.212;2023-07-28T17:52:56;7.35;;;3.55;;
70169;SDS011;57543;45.442;9.212;2023-07-28T17:55:59;5.97;;;3.40;;
70169;SDS011;57543;45.442;9.212;2023-07-28T17:59:05;8.23;;;3.70;;
70169;SDS011;57543;45.442;9.212;2023-07-28T18:02:09;7.00;;;3.50;;
70169;SDS011;57543;45.442;9.212;2023-07-28T18:05:13;7.77;;;3.50;;
70169;SDS011;57543;45.442;9.212;2023-07-28T18:08:16;6.88;;;3.80;;
70169;SDS011;57543;45.442;9.212;2023-07-28T18:11:20;9.32;;;3.75;;
70169;SDS011;57543;45.442;9.212;2023-07-28T18:14:23;7.35;;;3.50;;
70169;SDS011;57543;45.442;9.212;2023-07-28T18:17:27;11.15;;;3.70;;
70169;SDS011;57543;45.442;9.212;2023-07-28T18:20:30;8.50;;;3.70;;
70169;SDS011;57543;45.442;9.212;2023-07-28T18:23:34;11.15;;;3.60;;
70169;SDS011;57543;45.442;9.212;2023-07-28T18:26:37;8.88;;;3.40;;
70169;SDS011;57543;45.442;9.212;2023-07-28T18:29:41;5.57;;;3.03;;
70169;SDS011;57543;45.442;9.212;2023-07-28T18:32:44;5.97;;;3.30;;
70169;SDS011;57543;45.442;9.212;2023-07-28T18:35:50;7.57;;;3.40;;
70169;SDS011;57543;45.442;9.212;2023-07-28T18:38:57;7.78;;;3.30;;